createdAt,value
2018-08-07T00:00:05.641Z,27.82
2018-08-07T00:01:05.652Z,27.61
2018-08-07T00:02:05.659Z,27.61
2018-08-07T00:03:05.665Z,27.53
2018-08-07T00:04:05.669Z,27.39
2018-08-07T00:05:05.682Z,27.39
2018-08-07T00:06:05.694Z,27.57
2018-08-07T00:07:05.696Z,27.54
2018-08-07T00:08:05.714Z,27.71
2018-08-07T00:09:05.722Z,27.58
2018-08-07T00:10:05.714Z,27.14
2018-08-07T00:11:05.724Z,27.06
2018-08-07T00:12:05.736Z,26.98
2018-08-07T00:13:05.740Z,27.23
2018-08-07T00:14:05.746Z,27.16
2018-08-07T00:15:05.755Z,27.05
2018-08-07T00:16:05.767Z,26.96
2018-08-07T00:17:05.771Z,26.99
2018-08-07T00:18:05.773Z,26.80
2018-08-07T00:19:05.782Z,27.16
2018-08-07T00:20:05.793Z,26.99
2018-08-07T00:21:05.797Z,27.47
2018-08-07T00:22:05.810Z,27.41
2018-08-07T00:23:05.809Z,27.26
2018-08-07T00:24:05.815Z,27.26
2018-08-07T00:25:05.822Z,27.28
2018-08-07T00:26:05.830Z,27.05
2018-08-07T00:27:05.840Z,27.28
2018-08-07T00:28:05.847Z,27.21
2018-08-07T00:29:05.852Z,27.10
2018-08-07T00:30:05.861Z,27.09
2018-08-07T00:31:05.867Z,27.02
2018-08-07T00:32:05.877Z,27.24
2018-08-07T00:33:05.877Z,27.17
2018-08-07T00:34:05.887Z,27.02
2018-08-07T00:35:05.893Z,26.74
2018-08-07T00:36:05.914Z,26.80
2018-08-07T00:37:05.911Z,26.76
2018-08-07T00:38:05.912Z,26.81
2018-08-07T00:39:05.922Z,26.91
2018-08-07T00:40:05.928Z,26.87
2018-08-07T00:41:05.946Z,27.09
2018-08-07T00:42:05.946Z,27.21
2018-08-07T00:43:05.946Z,26.52
2018-08-07T00:44:05.953Z,26.20
2018-08-07T00:45:05.966Z,25.99
2018-08-07T00:46:05.978Z,26.37
2018-08-07T00:47:05.978Z,26.67
2018-08-07T00:48:05.993Z,27.16
2018-08-07T00:49:05.993Z,27.26
2018-08-07T00:50:06.034Z,27.19
2018-08-07T00:51:06.005Z,27.10
2018-08-07T00:52:06.015Z,26.76
2018-08-07T00:53:06.027Z,26.74
2018-08-07T00:54:06.025Z,26.77
2018-08-07T00:55:06.035Z,26.94
2018-08-07T00:56:06.039Z,26.57
2018-08-07T00:57:06.043Z,26.44
2018-08-07T00:58:06.052Z,26.99
2018-08-07T00:59:06.061Z,26.86
2018-08-07T01:00:06.162Z,27.41
2018-08-07T01:01:06.107Z,27.38
2018-08-07T01:02:06.091Z,27.19
2018-08-07T01:03:06.085Z,26.96
2018-08-07T01:04:06.177Z,27.04
2018-08-07T01:05:06.116Z,27.10
2018-08-07T01:06:06.114Z,27.04
2018-08-07T01:07:06.114Z,26.96
2018-08-07T01:08:06.128Z,26.74
2018-08-07T01:09:06.168Z,26.92
2018-08-07T01:10:06.156Z,26.94
2018-08-07T01:11:06.143Z,26.99
2018-08-07T01:12:06.154Z,26.81
2018-08-07T01:13:06.166Z,26.54
2018-08-07T01:14:06.166Z,26.44
2018-08-07T01:15:06.179Z,26.27
2018-08-07T01:16:06.191Z,26.04
2018-08-07T01:17:06.183Z,26.57
2018-08-07T01:18:06.204Z,26.36
2018-08-07T01:19:06.202Z,26.65
2018-08-07T01:20:06.209Z,27.01
2018-08-07T01:21:06.214Z,27.04
2018-08-07T01:22:06.220Z,26.52
2018-08-07T01:23:06.223Z,26.39
2018-08-07T01:24:06.241Z,26.35
2018-08-07T01:25:06.244Z,26.64
2018-08-07T01:26:06.247Z,27.05
2018-08-07T01:27:06.294Z,27.32
2018-08-07T01:28:06.260Z,26.98
2018-08-07T01:29:06.273Z,27.10
2018-08-07T01:30:06.279Z,27.26
2018-08-07T01:31:06.279Z,25.98
2018-08-07T01:32:06.296Z,25.22
2018-08-07T01:33:06.305Z,25.00
2018-08-07T01:34:06.309Z,24.34
2018-08-07T01:35:06.307Z,24.49
2018-08-07T01:36:06.324Z,24.85
2018-08-07T01:37:06.324Z,25.74
2018-08-07T01:38:06.330Z,26.04
2018-08-07T01:39:06.338Z,26.11
2018-08-07T01:40:06.344Z,25.91
2018-08-07T01:41:06.350Z,25.83
2018-08-07T01:42:06.366Z,25.69
2018-08-07T01:43:06.359Z,25.67
2018-08-07T01:44:06.370Z,25.77
2018-08-07T01:45:06.386Z,25.80
2018-08-07T01:46:06.384Z,26.01
2018-08-07T01:47:06.388Z,26.06
2018-08-07T01:48:06.393Z,25.94
2018-08-07T01:49:06.405Z,25.83
2018-08-07T01:50:06.409Z,25.97
2018-08-07T01:51:06.416Z,25.89
2018-08-07T01:52:06.420Z,26.12
2018-08-07T01:53:06.423Z,25.97
2018-08-07T01:54:06.437Z,26.09
2018-08-07T01:55:06.437Z,26.31
2018-08-07T01:56:06.447Z,26.39
2018-08-07T01:57:06.449Z,26.24
2018-08-07T01:58:06.459Z,26.21
2018-08-07T01:59:06.480Z,26.68
2018-08-07T02:00:06.471Z,26.37
2018-08-07T02:01:06.478Z,25.87
2018-08-07T02:02:06.486Z,25.25
2018-08-07T02:03:06.491Z,25.49
2018-08-07T02:04:06.492Z,25.62
2018-08-07T02:05:06.501Z,25.83
2018-08-07T02:06:06.510Z,25.93
2018-08-07T02:07:06.527Z,25.94
2018-08-07T02:08:06.518Z,25.89
2018-08-07T02:09:06.528Z,25.82
2018-08-07T02:10:06.539Z,25.72
2018-08-07T02:11:06.545Z,25.93
2018-08-07T02:12:06.551Z,26.09
2018-08-07T02:13:06.551Z,25.91
2018-08-07T02:14:06.564Z,25.75
2018-08-07T02:15:06.578Z,25.72
2018-08-07T02:16:06.576Z,25.87
2018-08-07T02:17:06.583Z,25.69
2018-08-07T02:18:06.585Z,25.69
2018-08-07T02:19:06.592Z,25.17
2018-08-07T02:20:06.599Z,25.15
2018-08-07T02:21:06.607Z,25.24
2018-08-07T02:22:06.612Z,25.39
2018-08-07T02:23:06.619Z,25.07
2018-08-07T02:24:06.628Z,24.95
2018-08-07T02:25:15.261Z,24.90
2018-08-07T02:27:00.045Z,25.44
2018-08-07T02:28:00.039Z,25.54
2018-08-07T02:29:00.112Z,25.38
2018-08-07T02:30:00.067Z,25.75
2018-08-07T02:31:00.048Z,25.80
2018-08-07T02:32:00.063Z,25.98
2018-08-07T02:33:00.070Z,26.01
2018-08-07T02:34:00.077Z,25.65
2018-08-07T02:35:00.083Z,25.71
2018-08-07T02:36:00.091Z,25.72
2018-08-07T02:37:00.094Z,25.74
2018-08-07T02:38:00.103Z,25.94
2018-08-07T02:39:00.106Z,25.84
2018-08-07T02:40:00.115Z,25.87
2018-08-07T02:41:00.118Z,25.68
2018-08-07T02:42:00.130Z,25.69
2018-08-07T02:43:00.140Z,25.79
2018-08-07T02:44:00.138Z,25.93
2018-08-07T02:45:00.148Z,25.65
2018-08-07T02:46:00.152Z,25.59
2018-08-07T02:47:00.162Z,25.46
2018-08-07T02:48:00.176Z,25.59
2018-08-07T02:49:00.176Z,25.54
2018-08-07T02:50:00.179Z,25.57
2018-08-07T02:51:00.186Z,25.24
2018-08-07T02:52:00.190Z,25.06
2018-08-07T02:53:00.198Z,25.02
2018-08-07T02:54:00.199Z,25.56
2018-08-07T02:55:00.212Z,25.69
2018-08-07T02:56:00.214Z,25.61
2018-08-07T02:57:00.221Z,25.86
2018-08-07T02:58:00.227Z,25.54
2018-08-07T03:17:09.710Z,25.01
2018-08-07T03:18:09.679Z,25.19
2018-08-07T03:19:09.690Z,25.06
2018-08-07T03:20:09.694Z,24.76
2018-08-07T03:21:09.689Z,24.47
2018-08-07T03:22:09.694Z,24.50
2018-08-07T03:23:09.696Z,24.38
2018-08-07T03:24:09.698Z,24.38
2018-08-07T03:25:09.707Z,24.45
2018-08-07T03:26:09.712Z,24.24
2018-08-07T03:27:09.716Z,24.39
2018-08-07T03:28:09.722Z,24.38
2018-08-07T03:29:09.720Z,24.39
2018-08-07T03:30:09.735Z,24.76
2018-08-07T03:31:09.738Z,24.69
2018-08-07T03:32:09.736Z,24.95
2018-08-07T03:33:09.742Z,25.00
2018-08-07T03:34:09.758Z,24.95
2018-08-07T03:35:09.755Z,24.94
2018-08-07T03:36:09.757Z,24.85
2018-08-07T03:37:09.768Z,24.94
2018-08-07T03:38:09.766Z,25.30
2018-08-07T03:39:09.777Z,25.32
2018-08-07T03:40:09.780Z,25.39
2018-08-07T03:41:09.789Z,25.37
2018-08-07T03:42:09.791Z,25.31
2018-08-07T03:43:09.794Z,25.28
2018-08-07T03:44:09.805Z,24.76
2018-08-07T03:45:09.809Z,24.49
2018-08-07T03:46:09.812Z,24.80
2018-08-07T03:47:09.819Z,24.76
2018-08-07T03:48:09.823Z,24.90
2018-08-07T03:49:09.870Z,24.90
2018-08-07T03:50:09.836Z,25.28
2018-08-07T03:51:09.845Z,25.15
2018-08-07T03:52:09.850Z,25.20
2018-08-07T03:53:09.897Z,25.27
2018-08-07T03:54:09.862Z,25.54
2018-08-07T03:55:09.873Z,25.62
2018-08-07T03:56:09.868Z,25.64
2018-08-07T03:57:09.879Z,25.68
2018-08-07T03:58:09.886Z,24.97
2018-08-07T03:59:09.986Z,24.71
2018-08-07T04:00:09.896Z,24.68
2018-08-07T04:01:09.903Z,24.41
2018-08-07T04:02:09.917Z,25.24
2018-08-07T04:03:09.920Z,24.97
2018-08-07T04:04:09.918Z,24.57
2018-08-07T04:05:09.918Z,24.88
2018-08-07T04:06:09.930Z,25.32
2018-08-07T04:07:09.933Z,25.77
2018-08-07T04:08:09.936Z,25.61
2018-08-07T04:09:09.951Z,24.50
2018-08-07T04:10:09.953Z,24.56
2018-08-07T04:11:09.960Z,24.37
2018-08-07T04:12:09.958Z,24.04
2018-08-07T04:13:09.970Z,24.80
2018-08-07T04:14:09.971Z,25.07
2018-08-07T04:15:10.011Z,25.25
2018-08-07T04:16:09.985Z,24.88
2018-08-07T04:17:09.994Z,24.71
2018-08-07T04:18:09.999Z,24.79
2018-08-07T04:19:10.004Z,24.83
2018-08-07T04:20:10.011Z,24.90
2018-08-07T04:21:10.021Z,24.54
2018-08-07T04:22:10.017Z,24.77
2018-08-07T04:23:10.043Z,25.07
2018-08-07T04:24:10.029Z,25.43
2018-08-07T04:25:10.038Z,25.34
2018-08-07T04:26:10.091Z,25.30
2018-08-07T04:27:10.051Z,24.88
2018-08-07T04:28:10.056Z,24.50
2018-08-07T04:29:10.098Z,23.86
2018-08-07T04:30:10.077Z,23.85
2018-08-07T04:31:10.148Z,24.67
2018-08-07T04:32:10.100Z,24.91
2018-08-07T04:33:10.095Z,25.12
2018-08-07T04:34:10.126Z,25.65
2018-08-07T04:35:10.097Z,25.50
2018-08-07T04:36:10.093Z,25.47
2018-08-07T04:37:10.103Z,25.64
2018-08-07T04:38:10.131Z,25.47
2018-08-07T04:39:10.118Z,25.02
2018-08-07T04:40:10.128Z,25.24
2018-08-07T04:41:10.127Z,25.34
2018-08-07T04:42:10.134Z,25.01
2018-08-07T04:43:10.139Z,25.35
2018-08-07T04:44:10.720Z,25.54
2018-08-07T04:45:10.155Z,25.37
2018-08-07T04:46:10.162Z,25.83
2018-08-07T04:47:10.197Z,25.99
2018-08-07T04:48:10.161Z,25.61
2018-08-07T04:49:10.194Z,25.06
2018-08-07T04:50:10.201Z,25.02
2018-08-07T04:51:10.177Z,25.54
2018-08-07T04:52:10.184Z,25.30
2018-08-07T04:53:10.198Z,25.17
2018-08-07T04:54:10.209Z,25.53
2018-08-07T04:55:18.888Z,25.65
2018-08-07T04:57:04.723Z,25.99
2018-08-07T04:58:04.723Z,25.98
2018-08-07T04:59:04.695Z,26.35
2018-08-07T05:00:04.696Z,26.35
2018-08-07T05:01:13.354Z,26.24
2018-08-07T05:02:58.152Z,26.43
2018-08-07T05:03:58.110Z,26.21
2018-08-07T05:04:58.146Z,25.80
2018-08-07T05:05:58.115Z,26.25
2018-08-07T05:06:58.115Z,26.55
2018-08-07T05:07:58.138Z,26.57
2018-08-07T05:08:58.162Z,26.55
2018-08-07T05:09:58.147Z,26.01
2018-08-07T05:10:58.144Z,25.93
2018-08-07T05:11:58.169Z,26.20
2018-08-07T05:12:58.185Z,25.91
2018-08-07T05:13:58.182Z,26.02
2018-08-07T05:14:58.188Z,26.50
2018-08-07T05:15:58.199Z,26.11
2018-08-07T05:16:58.229Z,25.86
2018-08-07T05:17:58.233Z,25.64
2018-08-07T05:18:58.258Z,25.86
2018-08-07T05:19:58.252Z,25.72
2018-08-07T05:20:58.248Z,25.75
2018-08-07T05:21:58.260Z,25.80
2018-08-07T05:22:58.306Z,25.71
2018-08-07T05:23:58.304Z,25.61
2018-08-07T05:24:58.324Z,25.44
2018-08-07T05:25:58.312Z,25.86
2018-08-07T05:26:58.341Z,25.94
2018-08-07T05:27:58.356Z,25.86
2018-08-07T05:28:58.372Z,25.80
2018-08-07T05:29:58.464Z,25.86
2018-08-07T05:30:58.385Z,25.98
2018-08-07T05:31:58.399Z,26.24
2018-08-07T05:32:58.405Z,26.59
2018-08-07T05:33:58.413Z,26.73
2018-08-07T05:34:58.427Z,26.65
2018-08-07T05:35:58.505Z,26.69
2018-08-07T05:36:58.468Z,27.05
2018-08-07T05:37:58.484Z,27.20
2018-08-07T05:38:58.486Z,27.17
2018-08-07T05:39:58.530Z,27.19
2018-08-07T05:40:58.552Z,27.35
2018-08-07T05:41:58.529Z,27.23
2018-08-07T05:42:58.564Z,27.61
2018-08-07T05:43:58.562Z,27.67
2018-08-07T05:44:58.577Z,27.64
2018-08-07T05:45:58.587Z,27.62
2018-08-07T05:46:58.626Z,27.95
2018-08-07T05:47:58.650Z,28.09
2018-08-07T05:48:58.639Z,28.03
2018-08-07T05:49:58.691Z,28.14
2018-08-07T05:50:58.937Z,28.40
2018-08-07T05:51:58.708Z,28.16
2018-08-07T05:52:58.725Z,28.11
2018-08-07T05:53:58.741Z,28.40
2018-08-07T05:54:58.736Z,28.59
2018-08-07T05:55:58.762Z,28.62
2018-08-07T05:56:58.782Z,28.72
2018-08-07T05:57:58.818Z,29.13
2018-08-07T05:58:58.825Z,29.04
2018-08-07T05:59:58.846Z,29.10
2018-08-07T06:00:58.904Z,29.10
2018-08-07T06:01:58.871Z,29.15
2018-08-07T06:02:58.899Z,29.10
2018-08-07T06:03:58.889Z,29.10
2018-08-07T06:04:58.937Z,29.15
2018-08-07T06:05:58.943Z,29.59
2018-08-07T06:06:58.960Z,29.86
2018-08-07T06:07:58.959Z,29.65
2018-08-07T06:08:58.972Z,29.62
2018-08-07T06:09:59.010Z,29.86
2018-08-07T06:10:59.011Z,30.11
2018-08-07T06:11:59.028Z,30.08
2018-08-07T06:12:59.071Z,29.87
2018-08-07T06:13:59.064Z,29.49
2018-08-07T06:14:59.111Z,28.95
2018-08-07T06:15:59.137Z,28.58
2018-08-07T06:16:59.107Z,28.48
2018-08-07T06:17:59.133Z,28.44
2018-08-07T06:18:59.212Z,28.50
2018-08-07T06:19:59.162Z,28.53
2018-08-07T06:20:59.194Z,28.43
2018-08-07T06:21:59.176Z,28.33
2018-08-07T06:22:59.219Z,28.36
2018-08-07T06:23:59.215Z,28.43
2018-08-07T06:24:59.246Z,28.44
2018-08-07T06:25:59.243Z,28.40
2018-08-07T06:26:59.249Z,28.46
2018-08-07T06:27:59.295Z,28.50
2018-08-07T06:28:59.335Z,28.48
2018-08-07T06:29:59.334Z,28.54
2018-08-07T06:30:59.325Z,28.54
2018-08-07T06:31:59.301Z,28.60
2018-08-07T06:32:59.350Z,28.50
2018-08-07T06:33:59.352Z,28.51
2018-08-07T06:34:59.342Z,28.51
2018-08-07T06:35:59.384Z,28.44
2018-08-07T06:36:59.364Z,28.53
2018-08-07T06:37:59.388Z,28.59
2018-08-07T06:38:59.388Z,28.47
2018-08-07T06:39:59.401Z,28.38
2018-08-07T06:40:59.415Z,28.38
2018-08-07T06:41:59.432Z,28.51
2018-08-07T06:42:59.465Z,28.50
2018-08-07T06:43:59.438Z,28.59
2018-08-07T06:44:59.451Z,28.60
2018-08-07T06:45:59.456Z,28.56
2018-08-07T06:46:59.464Z,28.43
2018-08-07T06:47:59.492Z,28.54
2018-08-07T06:48:59.490Z,28.58
2018-08-07T06:49:59.494Z,28.50
2018-08-07T06:50:59.512Z,28.40
2018-08-07T06:51:59.518Z,28.58
2018-08-07T06:52:59.530Z,28.41
2018-08-07T06:53:59.538Z,28.21
2018-08-07T06:54:59.548Z,28.26
2018-08-07T06:55:59.565Z,28.33
2018-08-07T06:56:59.598Z,28.44
2018-08-07T06:57:59.581Z,28.63
2018-08-07T06:58:59.592Z,28.84
2018-08-07T06:59:59.607Z,28.88
2018-08-07T07:00:59.634Z,29.00
2018-08-07T07:01:59.674Z,28.95
2018-08-07T07:02:59.639Z,28.95
2018-08-07T07:03:59.652Z,28.75
2018-08-07T07:05:01.218Z,28.70
2018-08-07T07:05:59.669Z,28.77
2018-08-07T07:06:59.666Z,28.60
2018-08-07T07:07:59.725Z,28.54
2018-08-07T07:08:59.683Z,28.63
2018-08-07T07:09:59.697Z,28.62
2018-08-07T07:10:59.744Z,28.43
2018-08-07T07:11:59.708Z,28.70
2018-08-07T07:12:59.719Z,28.87
2018-08-07T07:13:59.733Z,28.66
2018-08-07T07:14:59.765Z,28.73
2018-08-07T07:15:59.757Z,28.80
2018-08-07T07:16:59.750Z,28.53
2018-08-07T07:17:59.759Z,28.53
2018-08-07T07:18:59.762Z,28.63
2018-08-07T07:19:59.812Z,28.80
2018-08-07T07:20:59.898Z,28.82
2018-08-07T07:21:59.804Z,28.90
2018-08-07T07:22:59.818Z,28.91
2018-08-07T07:23:59.837Z,28.87
2018-08-07T07:24:59.822Z,28.84
2018-08-07T07:25:59.852Z,28.53
2018-08-07T07:26:59.868Z,28.66
2018-08-07T07:27:59.871Z,28.78
2018-08-07T07:28:59.868Z,28.63
2018-08-07T07:29:59.915Z,28.72
2018-08-07T07:30:59.877Z,28.59
2018-08-07T07:31:59.915Z,28.60
2018-08-07T07:32:59.924Z,28.77
2018-08-07T07:33:59.979Z,28.87
2018-08-07T07:34:59.964Z,28.95
2018-08-07T07:35:59.928Z,28.90
2018-08-07T07:36:59.930Z,28.96
2018-08-07T07:37:59.973Z,28.87
2018-08-07T07:39:08.591Z,28.77
2018-08-07T07:40:54.382Z,28.90
2018-08-07T07:41:54.366Z,28.81
2018-08-07T07:42:54.383Z,28.85
2018-08-07T07:43:54.400Z,28.97
2018-08-07T07:44:54.409Z,28.96
2018-08-07T07:45:54.406Z,28.85
2018-08-07T07:46:54.533Z,29.04
2018-08-07T07:47:54.454Z,29.01
2018-08-07T07:48:54.437Z,29.08
2018-08-07T07:49:54.464Z,29.06
2018-08-07T07:50:54.448Z,29.07
2018-08-07T07:51:54.459Z,29.06
2018-08-07T07:52:54.492Z,28.97
2018-08-07T07:53:54.497Z,29.13
2018-08-07T07:54:54.484Z,29.07
2018-08-07T07:55:54.501Z,29.16
2018-08-07T07:57:03.137Z,29.11
2018-08-07T07:58:47.968Z,29.20
2018-08-07T07:59:47.946Z,29.15
2018-08-07T08:00:47.956Z,29.15
2018-08-07T08:01:47.963Z,29.25
2018-08-07T08:02:47.966Z,29.22
2018-08-07T08:03:47.984Z,29.23
2018-08-07T08:04:47.982Z,29.23
2018-08-07T08:05:47.996Z,29.15
2018-08-07T08:06:48.000Z,29.15
2018-08-07T08:07:48.014Z,29.23
2018-08-07T08:10:09.134Z,29.11
2018-08-07T08:11:09.156Z,29.08
2018-08-07T08:13:02.538Z,29.23
2018-08-07T08:14:02.570Z,29.33
2018-08-07T08:15:02.539Z,29.35
2018-08-07T08:16:02.563Z,29.34
2018-08-07T08:17:02.575Z,29.29
2018-08-07T08:18:02.567Z,29.28
2018-08-07T08:19:02.582Z,29.25
2018-08-07T08:20:02.598Z,29.35
2018-08-07T08:21:02.609Z,29.40
2018-08-07T08:22:02.608Z,29.49
2018-08-07T08:23:02.618Z,29.41
2018-08-07T08:24:02.639Z,29.52
2018-08-07T08:25:02.639Z,29.53
2018-08-07T08:26:02.636Z,29.59
2018-08-07T08:27:02.652Z,29.65
2018-08-07T08:28:02.659Z,29.75
2018-08-07T08:29:02.694Z,29.75
2018-08-07T08:30:02.868Z,29.60
2018-08-07T08:31:02.684Z,29.50
2018-08-07T08:32:02.699Z,29.63
2018-08-07T08:33:02.699Z,29.65
2018-08-07T08:34:02.709Z,29.65
2018-08-07T08:35:02.808Z,29.65
2018-08-07T08:36:02.725Z,29.79
2018-08-07T08:37:02.741Z,29.86
2018-08-07T08:38:02.755Z,29.75
2018-08-07T08:39:02.766Z,29.81
2018-08-07T08:40:02.769Z,29.93
2018-08-07T08:41:02.785Z,29.87
2018-08-07T08:42:02.789Z,29.99
2018-08-07T08:43:02.792Z,30.00
2018-08-07T08:44:02.813Z,30.03
2018-08-07T08:45:02.845Z,30.14
2018-08-07T08:46:02.830Z,30.08
2018-08-07T08:47:02.835Z,29.92
2018-08-07T08:48:02.910Z,30.08
2018-08-07T08:49:02.853Z,30.21
2018-08-07T08:50:02.874Z,30.33
2018-08-07T08:51:02.870Z,30.30
2018-08-07T08:52:02.878Z,30.33
2018-08-07T08:53:02.904Z,30.29
2018-08-07T08:54:02.968Z,30.36
2018-08-07T08:55:02.916Z,30.19
2018-08-07T08:56:02.912Z,30.12
2018-08-07T08:57:02.924Z,30.14
2018-08-07T08:58:02.952Z,30.29
2018-08-07T08:59:02.947Z,30.47
2018-08-07T09:00:02.958Z,30.49
2018-08-07T09:01:02.984Z,30.36
2018-08-07T09:02:02.978Z,30.54
2018-08-07T09:03:02.979Z,30.54
2018-08-07T09:04:03.009Z,30.69
2018-08-07T09:05:03.055Z,30.68
2018-08-07T09:06:03.017Z,30.59
2018-08-07T09:07:03.027Z,30.65
2018-08-07T09:08:03.030Z,30.46
2018-08-07T09:09:03.060Z,30.38
2018-08-07T09:10:03.050Z,30.50
2018-08-07T09:11:03.052Z,30.40
2018-08-07T09:12:03.058Z,30.30
2018-08-07T09:13:03.074Z,30.33
2018-08-07T09:14:03.080Z,30.29
2018-08-07T09:15:03.115Z,30.45
2018-08-07T09:16:03.105Z,30.34
2018-08-07T09:17:03.106Z,30.24
2018-08-07T09:18:03.140Z,30.53
2018-08-07T09:19:03.126Z,30.65
2018-08-07T09:20:03.137Z,30.69
2018-08-07T09:21:03.156Z,30.68
2018-08-07T09:22:05.132Z,30.67
2018-08-07T09:23:03.191Z,30.53
2018-08-07T09:24:03.223Z,30.53
2018-08-07T09:25:03.209Z,30.67
2018-08-07T09:26:03.281Z,30.64
2018-08-07T09:27:03.240Z,30.65
2018-08-07T09:28:03.275Z,30.52
2018-08-07T09:29:03.262Z,30.59
2018-08-07T09:30:03.259Z,30.69
2018-08-07T09:31:03.279Z,30.52
2018-08-07T09:32:03.261Z,30.65
2018-08-07T09:33:03.383Z,30.74
2018-08-07T09:34:03.286Z,30.80
2018-08-07T09:35:03.277Z,30.99
2018-08-07T09:36:03.325Z,31.11
2018-08-07T09:37:03.336Z,31.05
2018-08-07T09:38:03.326Z,31.02
2018-08-07T09:39:03.320Z,30.99
2018-08-07T09:40:03.377Z,30.99
2018-08-07T09:41:03.371Z,31.17
2018-08-07T09:42:03.359Z,31.17
2018-08-07T09:43:03.352Z,31.11
2018-08-07T09:44:03.381Z,30.90
2018-08-07T09:45:03.384Z,30.80
2018-08-07T09:46:03.391Z,30.84
2018-08-07T09:47:03.389Z,30.83
2018-08-07T09:48:03.459Z,31.05
2018-08-07T09:49:03.404Z,31.05
2018-08-07T09:50:03.437Z,30.76
2018-08-07T09:51:03.478Z,30.93
2018-08-07T09:52:03.488Z,30.91
2018-08-07T09:53:03.470Z,31.02
2018-08-07T09:54:03.511Z,31.12
2018-08-07T09:55:03.512Z,31.20
2018-08-07T09:56:03.479Z,31.13
2018-08-07T09:57:03.534Z,31.11
2018-08-07T09:58:03.522Z,31.23
2018-08-07T09:59:03.510Z,31.40
2018-08-07T10:00:03.521Z,31.11
2018-08-07T10:01:03.525Z,30.93
2018-08-07T10:02:03.554Z,31.02
2018-08-07T10:03:03.546Z,31.18
2018-08-07T10:04:03.581Z,31.26
2018-08-07T10:05:03.575Z,31.46
2018-08-07T10:06:03.575Z,31.23
2018-08-07T10:07:03.585Z,31.09
2018-08-07T10:08:03.611Z,31.04
2018-08-07T10:09:03.614Z,31.20
2018-08-07T10:10:12.247Z,31.13
2018-08-07T10:11:57.055Z,31.31
2018-08-07T10:12:57.090Z,31.40
2018-08-07T10:13:57.042Z,31.27
2018-08-07T10:15:05.721Z,31.70
2018-08-07T10:16:51.469Z,31.68
2018-08-07T10:17:51.482Z,31.58
2018-08-07T10:18:51.504Z,31.84
2018-08-07T10:19:51.489Z,31.87
2018-08-07T10:20:51.518Z,31.75
2018-08-07T10:21:51.525Z,31.67
2018-08-07T10:22:51.519Z,31.64
2018-08-07T10:23:51.566Z,31.76
2018-08-07T10:24:51.571Z,31.80
2018-08-07T10:25:51.566Z,31.96
2018-08-07T10:26:51.591Z,31.98
2018-08-07T10:27:51.572Z,31.99
2018-08-07T10:28:51.646Z,32.02
2018-08-07T10:29:51.590Z,31.73
2018-08-07T10:30:51.616Z,31.73
2018-08-07T10:31:51.660Z,31.77
2018-08-07T10:32:51.640Z,31.73
2018-08-07T10:33:51.647Z,31.73
2018-08-07T10:34:51.665Z,31.96
2018-08-07T10:35:51.680Z,31.93
2018-08-07T10:36:51.695Z,32.05
2018-08-07T10:37:51.696Z,31.98
2018-08-07T10:38:51.700Z,31.98
2018-08-07T10:39:51.705Z,31.76
2018-08-07T10:40:51.853Z,31.84
2018-08-07T10:41:51.735Z,31.95
2018-08-07T10:42:51.743Z,32.00
2018-08-07T10:43:51.947Z,31.98
2018-08-07T10:44:51.825Z,31.98
2018-08-07T10:45:51.775Z,32.10
2018-08-07T10:46:51.793Z,32.22
2018-08-07T10:47:51.886Z,32.43
2018-08-07T10:48:51.785Z,32.42
2018-08-07T10:49:51.791Z,32.14
2018-08-07T10:50:51.855Z,31.88
2018-08-07T10:51:51.817Z,31.93
2018-08-07T10:52:51.877Z,31.96
2018-08-07T10:53:51.845Z,32.06
2018-08-07T10:54:51.845Z,32.25
2018-08-07T10:55:51.850Z,32.35
2018-08-07T10:56:51.858Z,32.30
2018-08-07T10:57:51.873Z,32.25
2018-08-07T10:58:51.931Z,32.06
2018-08-07T10:59:51.908Z,32.14
2018-08-07T11:00:51.935Z,32.10
2018-08-07T11:01:51.923Z,32.02
2018-08-07T11:02:51.924Z,31.96
2018-08-07T11:03:51.942Z,32.10
2018-08-07T11:04:51.960Z,32.17
2018-08-07T11:05:52.035Z,32.29
2018-08-07T11:06:51.974Z,32.30
2018-08-07T11:07:52.009Z,32.37
2018-08-07T11:08:52.023Z,32.14
2018-08-07T11:09:52.017Z,32.33
2018-08-07T11:10:52.000Z,32.47
2018-08-07T11:11:52.026Z,32.39
2018-08-07T11:12:52.050Z,32.44
2018-08-07T11:13:52.190Z,32.39
2018-08-07T11:14:52.060Z,32.51
2018-08-07T11:15:52.099Z,32.49
2018-08-07T11:16:52.087Z,32.25
2018-08-07T11:17:52.088Z,32.40
2018-08-07T11:18:52.097Z,32.37
2018-08-07T11:19:52.117Z,32.47
2018-08-07T11:20:52.115Z,32.61
2018-08-07T11:21:52.144Z,32.79
2018-08-07T11:22:52.157Z,32.76
2018-08-07T11:23:52.163Z,32.79
2018-08-07T11:24:52.257Z,32.74
2018-08-07T11:25:52.161Z,32.48
2018-08-07T11:26:52.177Z,32.48
2018-08-07T11:27:52.214Z,32.52
2018-08-07T11:28:52.220Z,32.70
2018-08-07T11:29:52.221Z,32.99
2018-08-07T11:30:52.228Z,32.85
2018-08-07T11:31:52.227Z,32.51
2018-08-07T11:32:52.243Z,32.48
2018-08-07T11:33:52.248Z,32.48
2018-08-07T11:34:52.253Z,32.40
2018-08-07T11:35:52.277Z,32.33
2018-08-07T11:36:52.290Z,32.48
2018-08-07T11:37:52.307Z,32.33
2018-08-07T11:38:52.311Z,32.35
2018-08-07T11:39:52.308Z,32.51
2018-08-07T11:40:52.322Z,32.55
2018-08-07T11:41:52.360Z,32.40
2018-08-07T11:42:52.335Z,32.35
2018-08-07T11:43:52.388Z,32.33
2018-08-07T11:44:52.395Z,32.42
2018-08-07T11:45:52.373Z,32.42
2018-08-07T11:46:52.415Z,32.48
2018-08-07T11:47:52.441Z,32.37
2018-08-07T11:48:52.403Z,32.39
2018-08-07T11:49:52.415Z,32.49
2018-08-07T11:50:52.434Z,32.47
2018-08-07T11:51:52.428Z,32.47
2018-08-07T11:52:52.470Z,32.40
2018-08-07T11:53:52.473Z,32.51
2018-08-07T11:54:52.461Z,32.48
2018-08-07T11:55:52.469Z,32.61
2018-08-07T11:56:52.538Z,32.71
2018-08-07T11:57:52.547Z,32.48
2018-08-07T11:58:52.510Z,32.81
2018-08-07T11:59:52.575Z,32.84
2018-08-07T12:00:52.555Z,32.84
2018-08-07T12:01:52.591Z,32.61
2018-08-07T12:02:52.566Z,32.55
2018-08-07T12:03:52.563Z,32.44
2018-08-07T12:04:52.613Z,32.44
2018-08-07T12:05:52.576Z,32.43
2018-08-07T12:06:52.612Z,32.51
2018-08-07T12:07:52.698Z,32.51
2018-08-07T12:08:52.661Z,32.70
2018-08-07T12:09:52.625Z,32.64
2018-08-07T12:10:52.628Z,32.58
2018-08-07T12:11:52.666Z,32.40
2018-08-07T12:12:52.686Z,32.49
2018-08-07T12:13:52.678Z,32.30
2018-08-07T12:14:52.712Z,32.55
2018-08-07T12:15:52.682Z,32.55
2018-08-07T12:16:52.693Z,32.61
2018-08-07T12:17:52.705Z,32.44
2018-08-07T12:18:52.756Z,32.43
2018-08-07T12:19:52.777Z,32.33
2018-08-07T12:20:52.752Z,32.35
2018-08-07T12:21:52.765Z,32.39
2018-08-07T12:22:52.759Z,32.40
2018-08-07T12:23:52.803Z,32.52
2018-08-07T12:24:52.787Z,32.49
2018-08-07T12:25:52.800Z,32.55
2018-08-07T12:26:52.857Z,32.55
2018-08-07T12:27:52.900Z,32.43
2018-08-07T12:28:52.854Z,32.43
2018-08-07T12:29:52.835Z,32.40
2018-08-07T12:30:52.862Z,32.51
2018-08-07T12:31:52.889Z,32.48
2018-08-07T12:32:52.888Z,32.58
2018-08-07T12:33:52.880Z,32.57
2018-08-07T12:34:52.967Z,32.47
2018-08-07T12:35:52.915Z,32.52
2018-08-07T12:36:52.964Z,32.49
2018-08-07T12:37:52.928Z,32.52
2018-08-07T12:38:52.964Z,32.43
2018-08-07T12:39:52.942Z,32.42
2018-08-07T12:40:52.946Z,32.47
2018-08-07T12:41:52.979Z,32.43
2018-08-07T12:42:52.967Z,32.59
2018-08-07T12:43:52.969Z,32.62
2018-08-07T12:44:52.982Z,32.71
2018-08-07T12:45:52.994Z,32.67
2018-08-07T12:46:53.015Z,32.58
2018-08-07T12:47:53.031Z,32.55
2018-08-07T12:48:53.038Z,32.54
2018-08-07T12:49:53.055Z,32.43
2018-08-07T12:50:53.063Z,32.48
2018-08-07T12:51:53.062Z,32.58
2018-08-07T12:52:53.062Z,32.42
2018-08-07T12:53:53.083Z,32.49
2018-08-07T12:54:53.110Z,32.74
2018-08-07T12:55:53.144Z,32.79
2018-08-07T12:56:53.107Z,32.64
2018-08-07T12:57:53.155Z,32.71
2018-08-07T12:58:53.139Z,32.62
2018-08-07T12:59:53.164Z,32.62
2018-08-07T13:00:53.149Z,32.70
2018-08-07T13:01:53.177Z,32.74
2018-08-07T13:02:53.165Z,32.73
2018-08-07T13:03:53.181Z,32.66
2018-08-07T13:04:53.211Z,32.70
2018-08-07T13:05:53.234Z,32.79
2018-08-07T13:06:53.295Z,32.55
2018-08-07T13:07:53.243Z,32.59
2018-08-07T13:08:53.312Z,32.44
2018-08-07T13:10:02.903Z,32.42
2018-08-07T13:11:46.693Z,32.47
2018-08-07T13:12:46.710Z,32.44
2018-08-07T13:13:46.684Z,32.57
2018-08-07T13:14:46.721Z,32.71
2018-08-07T13:15:46.707Z,32.71
2018-08-07T13:16:46.705Z,32.58
2018-08-07T13:17:46.737Z,32.62
2018-08-07T13:18:46.738Z,32.59
2018-08-07T13:19:46.744Z,32.48